Time;durP1;ratioP1;P1;durP2;ratioP2;P2;SDS_P1;SDS_P2;PMS_P1;PMS_P2;Temp;Humidity;BMP_temperature;BMP_pressure;BME280_temperature;BME280_humidity;BME280_pressure;Samples;Min_cycle;Max_cycle;Signal;HPM_P1;HPM_P2
2021/01/15 00:01:40;;;;;;;14.43;10.23;;;;;;;4.13;62.39;102023.97;5117925;28;20262;-73
2021/01/15 00:04:06;;;;;;;10.60;9.33;;;;;;;4.10;63.26;102034.09;5117329;28;20221;-74
2021/01/15 00:06:31;;;;;;;11.33;10.13;;;;;;;4.25;61.45;102016.91;5118427;28;20616;-70
2021/01/15 00:08:57;;;;;;;13.90;11.00;;;;;;;3.82;62.94;102027.38;5117991;28;20261;-74
2021/01/15 00:11:30;;;;;;;12.50;10.13;;;;;;;4.11;61.85;102025.56;5117861;28;20181;-74
2021/01/15 00:13:56;;;;;;;11.73;9.70;;;;;;;4.36;61.56;102020.97;5118196;28;20202;-72
2021/01/15 00:16:23;;;;;;;11.83;9.50;;;;;;;3.98;62.67;102018.81;5117029;28;20422;-76
2021/01/15 00:18:50;;;;;;;12.13;10.37;;;;;;;3.89;63.20;102026.91;5118078;28;20727;-75
2021/01/15 00:21:19;;;;;;;10.83;9.23;;;;;;;4.47;60.30;102023.28;5117983;28;20763;-71
2021/01/15 00:23:44;;;;;;;12.13;9.87;;;;;;;4.33;60.13;102010.47;5099763;28;20499;-70
2021/01/15 00:26:17;;;;;;;12.73;10.10;;;;;;;4.36;60.27;102007.19;5117748;28;20802;-73
2021/01/15 00:28:42;;;;;;;12.00;9.43;;;;;;;11.61;67.27;101984.47;5117723;28;20171;-65
2021/01/15 00:31:07;;;;;;;12.20;10.80;;;;;;;7.76;50.51;102002.84;5117667;28;20457;-71
2021/01/15 00:33:33;;;;;;;10.87;9.50;;;;;;;5.56;55.69;102007.44;5117880;28;20258;-71
2021/01/15 00:35:58;;;;;;;10.40;9.10;;;;;;;5.45;56.15;102011.19;5117465;28;20167;-72
2021/01/15 00:38:23;;;;;;;10.47;9.37;;;;;;;5.48;55.84;102001.91;5120426;28;20232;-71
2021/01/15 00:41:00;;;;;;;10.57;9.47;;;;;;;4.51;59.08;102007.13;5138469;27;20526;-70
2021/01/15 00:43:25;;;;;;;12.77;10.63;;;;;;;4.43;60.44;102014.44;5138209;27;20430;-72
2021/01/15 00:45:50;;;;;;;11.83;10.23;;;;;;;4.28;61.14;102011.91;5138243;27;20460;-72
2021/01/15 00:48:15;;;;;;;11.80;10.20;;;;;;;4.43;60.27;102011.88;5137806;27;20215;-71
2021/01/15 00:50:41;;;;;;;13.50;10.83;;;;;;;4.45;61.18;102007.69;5137845;27;20219;-74
2021/01/15 00:53:06;;;;;;;13.33;11.07;;;;;;;4.44;61.20;102010.16;5138397;28;20175;-71
2021/01/15 00:55:31;;;;;;;13.90;11.27;;;;;;;4.31;61.62;102006.91;5137234;27;20634;-73
2021/01/15 00:57:58;;;;;;;15.00;12.47;;;;;;;4.10;63.85;102013.44;5138128;27;20175;-73
2021/01/15 01:00:23;;;;;;;13.70;11.80;;;;;;;3.94;63.32;102017.75;5132754;27;20481;-73
2021/01/15 01:02:51;;;;;;;13.37;11.77;;;;;;;4.05;63.46;102011.50;5117420;28;20414;-73
2021/01/15 01:05:20;;;;;;;13.30;11.90;;;;;;;3.64;64.97;102019.44;5117346;28;20186;-76
2021/01/15 01:07:47;;;;;;;16.10;12.90;;;;;;;3.11;66.93;102024.09;5117735;28;20405;-72
2021/01/15 01:10:13;;;;;;;16.00;12.70;;;;;;;3.22;67.42;102035.03;5120713;28;20417;-71
2021/01/15 01:12:40;;;;;;;17.67;13.43;;;;;;;3.39;66.97;102038.59;5121233;28;20424;-75
2021/01/15 01:15:06;;;;;;;16.70;13.07;;;;;;;3.51;66.24;102035.88;5121570;28;20588;-75
2021/01/15 01:17:31;;;;;;;18.80;13.07;;;;;;;3.39;67.35;102032.56;5121206;28;20413;-73
2021/01/15 01:19:56;;;;;;;19.10;13.60;;;;;;;3.39;67.94;102037.72;5120998;28;20182;-74
2021/01/15 01:22:21;;;;;;;15.90;13.10;;;;;;;3.61;66.51;102030.44;5121427;28;20190;-72
2021/01/15 01:24:47;;;;;;;17.73;13.43;;;;;;;3.47;67.24;102031.34;5120912;28;20234;-69
2021/01/15 01:27:12;;;;;;;17.70;14.07;;;;;;;3.62;67.18;102033.94;5120810;28;20564;-71
2021/01/15 01:29:37;;;;;;;20.13;13.30;;;;;;;3.37;68.52;102041.09;5121276;28;20244;-69
2021/01/15 01:32:03;;;;;;;23.53;13.70;;;;;;;3.14;68.63;102038.81;5120976;28;20172;-72
2021/01/15 01:34:28;;;;;;;15.80;12.73;;;;;;;3.21;68.11;102043.56;5120715;28;20289;-76
2021/01/15 01:36:53;;;;;;;21.50;15.13;;;;;;;3.34;68.30;102046.09;5121176;28;20174;-70
2021/01/15 01:39:19;;;;;;;17.93;13.73;;;;;;;3.14;68.43;102041.38;5120673;28;20593;-70
2021/01/15 01:41:44;;;;;;;18.07;14.53;;;;;;;3.07;69.14;102044.41;5120602;28;20261;-70
2021/01/15 01:44:09;;;;;;;20.60;14.90;;;;;;;2.95;69.79;102053.16;5121027;28;20162;-72
2021/01/15 01:46:34;;;;;;;18.30;13.73;;;;;;;3.13;69.34;102055.09;5120655;28;20209;-70
2021/01/15 01:49:00;;;;;;;17.97;15.10;;;;;;;3.31;68.63;102052.72;5118098;27;20533;-71
2021/01/15 01:51:27;;;;;;;20.50;15.90;;;;;;;3.42;68.02;102063.69;5099626;28;20537;-71
2021/01/15 01:53:52;;;;;;;19.63;15.50;;;;;;;3.60;68.18;102058.72;5099971;28;20588;-79
2021/01/15 01:56:17;;;;;;;20.67;16.30;;;;;;;3.27;68.85;102059.38;5100083;28;20470;-76
2021/01/15 01:58:43;;;;;;;19.20;15.63;;;;;;;3.06;69.09;102056.41;5100747;28;20200;-77
2021/01/15 02:01:08;;;;;;;21.63;16.37;;;;;;;3.48;68.42;102048.59;5099764;28;20180;-76
2021/01/15 02:03:33;;;;;;;21.30;16.40;;;;;;;3.49;68.17;102053.84;5099986;28;20173;-76
2021/01/15 02:06:01;;;;;;;21.73;15.80;;;;;;;3.53;67.89;102057.47;5100725;28;20203;-77
2021/01/15 02:08:30;;;;;;;18.83;14.90;;;;;;;3.76;67.33;102060.53;5115986;28;20655;-77
2021/01/15 02:11:22;;;;;;;19.80;15.80;;;;;;;3.31;68.74;102060.47;5120111;28;20463;-76
2021/01/15 02:13:58;;;;;;;19.73;16.17;;;;;;;3.11;69.08;102052.44;5098168;28;20421;-77
2021/01/15 02:16:25;;;;;;;20.53;16.50;;;;;;;3.20;69.58;102054.66;5118626;28;20860;-75
2021/01/15 02:18:54;;;;;;;22.23;15.80;;;;;;;3.14;69.03;102056.84;5119347;28;20466;-75
2021/01/15 02:21:28;;;;;;;23.03;16.03;;;;;;;3.22;69.18;102057.31;5118272;28;20417;-75
2021/01/15 02:23:57;;;;;;;24.13;16.80;;;;;;;3.18;69.07;102056.22;5119038;28;20464;-74
2021/01/15 02:27:01;;;;;;;23.20;17.27;;;;;;;3.13;69.63;102058.53;5117901;28;20425;-74
2021/01/15 02:29:28;;;;;;;21.03;15.40;;;;;;;3.06;69.98;102058.97;5119210;28;21016;-74
2021/01/15 02:32:10;;;;;;;20.37;16.30;;;;;;;2.98;70.87;102061.06;5118357;28;20417;-75
2021/01/15 02:34:56;;;;;;;18.40;15.20;;;;;;;3.04;70.45;102050.25;5118802;28;20926;-75
2021/01/15 02:37:24;;;;;;;21.50;15.40;;;;;;;3.09;69.88;102054.00;5118311;27;20429;-75
2021/01/15 02:40:02;;;;;;;23.23;17.03;;;;;;;3.21;69.83;102048.72;5117869;28;20437;-75
2021/01/15 02:42:35;;;;;;;22.13;16.50;;;;;;;3.07;69.99;102057.28;5118810;28;20449;-75
2021/01/15 02:45:04;;;;;;;26.47;17.53;;;;;;;3.22;70.23;102060.81;5118877;28;20492;-75
2021/01/15 02:47:53;;;;;;;22.70;16.10;;;;;;;3.27;70.37;102059.38;5118094;28;20516;-74
2021/01/15 02:50:23;;;;;;;22.50;17.07;;;;;;;3.25;69.38;102068.72;5118848;28;20428;-75
2021/01/15 02:52:49;;;;;;;26.40;16.50;;;;;;;3.27;68.90;102072.25;5118562;28;20449;-75
2021/01/15 02:55:14;;;;;;;20.63;15.43;;;;;;;3.26;69.67;102069.59;5118308;28;20453;-76
2021/01/15 02:57:40;;;;;;;22.90;15.80;;;;;;;3.76;70.42;102064.03;5117258;28;20915;-74
2021/01/15 03:00:11;;;;;;;25.57;16.87;;;;;;;3.51;67.94;102067.69;5117499;28;20490;-76
2021/01/15 03:03:04;;;;;;;23.10;16.63;;;;;;;3.78;66.35;102072.72;5117254;27;20526;-75
2021/01/15 03:05:42;;;;;;;22.23;14.93;;;;;;;3.41;69.17;102077.38;5117774;28;20405;-75
2021/01/15 03:08:07;;;;;;;21.70;15.90;;;;;;;3.48;70.17;102082.13;5117542;28;20421;-75
2021/01/15 03:10:34;;;;;;;21.53;15.60;;;;;;;3.85;69.69;102079.13;5117301;28;20424;-75
2021/01/15 03:13:00;;;;;;;21.83;16.03;;;;;;;4.17;65.43;102081.00;5118402;28;20259;-74
2021/01/15 03:15:26;;;;;;;19.03;14.77;;;;;;;3.91;66.60;102074.34;5117412;28;20552;-76
2021/01/15 03:17:52;;;;;;;19.40;15.00;;;;;;;3.70;67.03;102086.84;5117579;28;20421;-75
2021/01/15 03:20:18;;;;;;;21.77;14.83;;;;;;;4.00;65.87;102087.75;5117225;28;20417;-76
2021/01/15 03:22:46;;;;;;;19.40;15.00;;;;;;;3.99;66.12;102090.25;5117445;28;20802;-76
2021/01/15 03:25:14;;;;;;;18.40;13.90;;;;;;;4.04;65.37;102088.84;5117975;28;20456;-76
2021/01/15 03:27:50;;;;;;;17.80;13.77;;;;;;;3.97;66.15;102094.44;5118085;27;20909;-75
2021/01/15 03:30:18;;;;;;;19.70;12.97;;;;;;;3.40;68.39;102102.28;5117911;28;20730;-76
2021/01/15 03:32:45;;;;;;;19.23;13.50;;;;;;;3.56;66.89;102100.59;5117357;28;20790;-76
2021/01/15 03:35:23;;;;;;;16.27;12.80;;;;;;;4.28;63.93;102097.09;5117608;28;20461;-76
2021/01/15 03:38:03;;;;;;;16.00;12.60;;;;;;;3.92;65.47;102099.31;5117736;28;20468;-76
2021/01/15 03:40:30;;;;;;;17.10;12.77;;;;;;;4.22;64.80;102099.31;5118483;28;20448;-75
2021/01/15 03:42:56;;;;;;;14.50;11.60;;;;;;;4.35;64.26;102093.19;5118405;28;20440;-75
2021/01/15 03:45:21;;;;;;;14.30;11.97;;;;;;;4.09;64.65;102104.59;5118721;28;20414;-75
2021/01/15 03:47:47;;;;;;;16.80;12.00;;;;;;;3.64;65.88;102105.44;5119485;28;20171;-75
2021/01/15 03:50:12;;;;;;;12.97;11.10;;;;;;;3.82;65.84;102108.22;5118354;28;20178;-75
2021/01/15 03:52:38;;;;;;;11.87;9.97;;;;;;;3.63;65.48;102107.94;5118653;28;20216;-76
2021/01/15 03:55:04;;;;;;;14.07;11.00;;;;;;;3.67;65.23;102103.03;5118647;28;20557;-78
2021/01/15 03:57:30;;;;;;;13.27;10.10;;;;;;;3.71;64.42;102098.97;5117681;28;20164;-76
2021/01/15 03:59:55;;;;;;;17.17;10.37;;;;;;;4.00;63.90;102095.50;5117569;28;20410;-76
2021/01/15 04:02:20;;;;;;;16.83;11.20;;;;;;;4.00;63.43;102095.50;5118753;28;20436;-76
2021/01/15 04:04:49;;;;;;;11.90;10.20;;;;;;;3.81;63.80;102093.53;5118337;28;20171;-76
2021/01/15 04:07:20;;;;;;;13.47;11.20;;;;;;;3.69;63.84;102101.44;5118394;28;20163;-75
2021/01/15 04:09:46;;;;;;;14.07;10.50;;;;;;;3.78;64.44;102095.06;5118146;28;20417;-75
2021/01/15 04:12:11;;;;;;;15.20;10.20;;;;;;;3.20;65.85;102093.31;5118270;28;20698;-76
2021/01/15 04:14:38;;;;;;;13.27;10.37;;;;;;;3.42;64.71;102107.50;5118397;28;20199;-75
2021/01/15 04:17:04;;;;;;;13.27;10.90;;;;;;;3.09;66.50;102104.66;5118086;28;20189;-75
2021/01/15 04:19:29;;;;;;;12.33;9.90;;;;;;;3.09;66.06;102104.66;5117329;28;20421;-76
2021/01/15 04:21:55;;;;;;;11.30;9.37;;;;;;;3.49;64.48;102105.41;5118169;28;20197;-76
2021/01/15 04:24:21;;;;;;;12.70;10.27;;;;;;;3.70;64.03;102099.75;5118096;28;20219;-76
2021/01/15 04:26:53;;;;;;;12.00;10.03;;;;;;;3.54;64.19;102101.44;5118047;28;20225;-75
2021/01/15 04:29:18;;;;;;;10.83;9.40;;;;;;;4.09;62.55;102099.44;5118308;28;20254;-76
2021/01/15 04:31:44;;;;;;;10.63;8.93;;;;;;;3.36;64.89;102096.03;5117884;28;20512;-76
2021/01/15 04:34:09;;;;;;;16.80;10.97;;;;;;;3.68;63.77;102096.19;5117958;28;20206;-76
2021/01/15 04:36:35;;;;;;;12.70;10.00;;;;;;;3.62;64.58;102096.69;5118335;28;20164;-76
2021/01/15 04:39:00;;;;;;;10.37;9.23;;;;;;;3.17;65.29;102088.84;5117967;28;20186;-76
2021/01/15 04:41:26;;;;;;;17.33;13.17;;;;;;;2.97;66.49;102103.06;5117838;28;20709;-75
2021/01/15 04:43:54;;;;;;;16.27;10.30;;;;;;;3.00;66.13;102100.72;5121312;28;20178;-75
2021/01/15 04:46:23;;;;;;;13.50;10.63;;;;;;;3.61;66.10;102104.34;5122651;28;20179;-76
2021/01/15 04:48:53;;;;;;;11.53;9.30;;;;;;;3.34;64.54;102100.22;5122366;28;20405;-75
2021/01/15 04:51:23;;;;;;;12.80;10.20;;;;;;;3.48;64.14;102102.75;5122470;28;20699;-76
2021/01/15 04:53:56;;;;;;;11.10;9.40;;;;;;;3.41;64.62;102105.72;5122921;28;20417;-76
2021/01/15 04:56:44;;;;;;;11.97;9.60;;;;;;;3.13;65.42;102109.19;5121924;28;20830;-76
2021/01/15 04:59:12;;;;;;;11.30;9.67;;;;;;;3.55;63.68;102115.19;5114335;27;20845;-77
2021/01/15 05:01:44;;;;;;;13.20;10.80;;;;;;;3.31;64.27;102117.16;5121813;28;20413;-77
2021/01/15 05:04:14;;;;;;;14.93;10.20;;;;;;;3.78;63.32;102114.00;5121834;28;20417;-76
2021/01/15 05:06:47;;;;;;;12.97;10.37;;;;;;;3.77;62.75;102111.31;5121852;28;20432;-76
2021/01/15 05:09:15;;;;;;;12.50;10.10;;;;;;;3.88;61.94;102113.75;5121921;27;20427;-76
2021/01/15 05:11:42;;;;;;;13.27;10.80;;;;;;;3.16;64.30;102122.28;5121637;28;20680;-76
2021/01/15 05:14:09;;;;;;;14.10;10.03;;;;;;;3.29;64.19;102114.50;5121891;27;20487;-76
2021/01/15 05:16:36;;;;;;;14.07;11.23;;;;;;;3.48;63.58;102120.78;5121858;28;20496;-77
2021/01/15 05:19:02;;;;;;;14.70;10.73;;;;;;;3.43;64.51;102119.63;5121356;28;20516;-76
2021/01/15 05:21:27;;;;;;;13.93;9.97;;;;;;;3.31;65.17;102120.63;5121180;28;20449;-76
2021/01/15 05:23:53;;;;;;;12.70;11.10;;;;;;;2.99;66.09;102127.25;5121548;28;20588;-77
2021/01/15 05:26:18;;;;;;;15.37;11.33;;;;;;;3.13;65.82;102130.69;5120857;28;20172;-76
2021/01/15 05:28:44;;;;;;;14.17;10.50;;;;;;;3.54;64.24;102136.63;5120632;28;20172;-76
2021/01/15 05:31:09;;;;;;;15.43;10.80;;;;;;;3.21;65.33;102141.50;5120618;28;20190;-77
2021/01/15 05:33:35;;;;;;;13.17;10.47;;;;;;;2.72;66.87;102144.44;5121379;28;20413;-77
2021/01/15 05:36:00;;;;;;;13.73;10.67;;;;;;;2.42;67.93;102149.38;5121427;28;20421;-76
2021/01/15 05:38:26;;;;;;;11.80;10.30;;;;;;;2.21;67.35;102154.00;5120342;28;20216;-76
2021/01/15 05:40:55;;;;;;;14.80;10.70;;;;;;;2.46;67.51;102159.09;5120922;28;20557;-77
2021/01/15 05:43:31;;;;;;;26.53;18.80;;;;;;;2.83;68.30;102153.72;5121523;28;20167;-77
2021/01/15 05:46:21;;;;;;;15.77;11.90;;;;;;;2.68;66.27;102157.91;5121064;27;20410;-76
2021/01/15 05:48:48;;;;;;;13.33;10.87;;;;;;;2.90;65.79;102152.44;5120929;28;20439;-76
2021/01/15 05:51:27;;;;;;;14.43;11.47;;;;;;;2.97;65.08;102152.03;5120788;28;20428;-76
2021/01/15 05:53:53;;;;;;;15.07;11.27;;;;;;;2.60;65.73;102156.50;5120190;28;20686;-75
2021/01/15 05:56:22;;;;;;;13.50;10.60;;;;;;;2.77;66.04;102155.03;5120372;28;20405;-76
2021/01/15 05:59:01;;;;;;;15.23;11.63;;;;;;;2.49;66.28;102156.69;5119938;28;20206;-76
2021/01/15 06:01:46;;;;;;;12.60;10.03;;;;;;;2.34;67.05;102161.72;5120635;28;20885;-76
2021/01/15 06:04:13;;;;;;;14.17;11.20;;;;;;;2.55;66.13;102163.94;5120641;28;20700;-76
2021/01/15 06:06:39;;;;;;;14.17;11.13;;;;;;;2.40;66.74;102174.09;5120523;28;20559;-76
2021/01/15 06:09:06;;;;;;;12.63;10.20;;;;;;;2.63;65.68;102178.19;5120643;28;20413;-76
2021/01/15 06:11:34;;;;;;;11.30;9.80;;;;;;;3.42;63.29;102166.81;5120561;28;20440;-76
2021/01/15 06:13:59;;;;;;;13.97;11.40;;;;;;;2.95;65.29;102174.22;5120196;28;20418;-76
2021/01/15 06:16:24;;;;;;;13.90;10.60;;;;;;;2.69;64.92;102170.88;5120357;27;20645;-77
2021/01/15 06:19:02;;;;;;;14.57;10.47;;;;;;;2.88;64.04;102172.03;5120478;27;20229;-77
2021/01/15 06:21:32;;;;;;;14.63;10.70;;;;;;;3.25;62.65;102168.31;5120075;28;20247;-76
2021/01/15 06:24:08;;;;;;;13.00;10.87;;;;;;;2.85;63.66;102172.72;5119860;28;20728;-77
2021/01/15 06:26:38;;;;;;;14.80;11.00;;;;;;;3.10;62.27;102175.97;5120339;28;20417;-76
2021/01/15 06:29:06;;;;;;;14.50;10.50;;;;;;;2.77;63.79;102179.06;5120269;28;20416;-77
2021/01/15 06:31:47;;;;;;;12.90;10.50;;;;;;;2.17;66.55;102185.44;5102345;28;20425;-76
2021/01/15 06:34:13;;;;;;;13.80;10.40;;;;;;;2.38;66.82;102188.53;5119036;28;20496;-75
2021/01/15 06:36:53;;;;;;;13.60;11.67;;;;;;;2.55;64.85;102184.53;5119775;28;20429;-75
2021/01/15 06:39:20;;;;;;;14.87;10.83;;;;;;;2.52;66.00;102181.75;5119626;28;20393;-76
2021/01/15 06:41:45;;;;;;;14.00;11.00;;;;;;;2.57;64.13;102189.75;5119921;28;20684;-75
2021/01/15 06:44:15;;;;;;;16.03;11.70;;;;;;;2.45;64.54;102188.19;5119222;28;20406;-76
2021/01/15 06:46:42;;;;;;;23.60;13.67;;;;;;;2.55;64.53;102189.66;5120185;28;20168;-76
2021/01/15 06:49:14;;;;;;;17.40;11.60;;;;;;;2.88;63.45;102192.66;5119895;28;20437;-76
2021/01/15 06:51:52;;;;;;;13.43;10.63;;;;;;;2.80;63.61;102191.25;5119402;28;20467;-76
2021/01/15 06:54:23;;;;;;;15.53;11.63;;;;;;;2.09;65.05;102202.94;5118829;28;20452;-76
2021/01/15 06:56:52;;;;;;;16.43;11.33;;;;;;;2.58;63.72;102205.31;5118713;28;20410;-76
2021/01/15 06:59:30;;;;;;;13.20;10.90;;;;;;;2.47;63.91;102207.19;5119817;28;20405;-76
2021/01/15 07:02:09;;;;;;;16.50;12.00;;;;;;;1.99;65.20;102203.13;5119772;28;20436;-75
2021/01/15 07:04:46;;;;;;;15.30;11.97;;;;;;;2.23;64.31;102206.44;5119509;28;20431;-78
2021/01/15 07:07:15;;;;;;;14.43;11.70;;;;;;;2.06;65.22;102207.88;5117695;28;20848;-79
2021/01/15 07:09:43;;;;;;;17.53;13.20;;;;;;;2.16;65.34;102205.13;5118498;28;20689;-80
2021/01/15 07:12:11;;;;;;;13.87;10.77;;;;;;;2.31;64.41;102206.94;5119326;27;20417;-78
2021/01/15 07:14:58;;;;;;;14.60;11.60;;;;;;;2.39;64.36;102208.34;5118474;28;20733;-79
2021/01/15 07:17:30;;;;;;;13.60;10.90;;;;;;;2.55;62.07;102207.69;5119309;28;20445;-78
2021/01/15 07:20:19;;;;;;;14.27;11.60;;;;;;;2.13;63.96;102222.94;5119114;28;20741;-76
2021/01/15 07:22:52;;;;;;;14.73;11.93;;;;;;;2.20;63.88;102221.66;5113910;28;20509;-75
2021/01/15 07:25:19;;;;;;;17.57;11.97;;;;;;;2.58;62.92;102228.47;5119091;28;20511;-75
2021/01/15 07:27:45;;;;;;;14.47;11.30;;;;;;;2.56;62.25;102227.50;5118810;28;20421;-76
2021/01/15 07:30:13;;;;;;;14.20;10.80;;;;;;;2.13;63.59;102222.94;5118763;28;20526;-76
2021/01/15 07:32:39;;;;;;;14.70;12.33;;;;;;;1.93;64.28;102229.28;5119090;28;20406;-76
2021/01/15 07:35:05;;;;;;;14.17;11.40;;;;;;;2.52;62.08;102230.66;5118510;27;20482;-76
2021/01/15 07:37:31;;;;;;;13.60;11.00;;;;;;;3.40;59.67;102225.09;5118394;28;20433;-76
2021/01/15 07:40:03;;;;;;;15.40;11.10;;;;;;;3.37;59.01;102226.69;5118733;28;20406;-75
2021/01/15 07:42:58;;;;;;;15.50;12.70;;;;;;;2.77;61.17;102229.69;5118657;28;20443;-75
2021/01/15 07:45:24;;;;;;;17.40;11.33;;;;;;;2.88;60.70;102233.84;5109539;28;20425;-75
2021/01/15 07:48:01;;;;;;;16.50;11.90;;;;;;;2.72;61.75;102233.66;5118247;28;20462;-75
2021/01/15 07:50:29;;;;;;;14.17;11.97;;;;;;;2.44;61.93;102237.88;5118205;27;20183;-75
2021/01/15 07:53:20;;;;;;;16.97;11.63;;;;;;;3.05;58.85;102234.97;5118259;28;20486;-76
2021/01/15 07:55:46;;;;;;;17.87;14.03;;;;;;;2.63;61.50;102242.56;5118248;28;20467;-75
2021/01/15 07:58:12;;;;;;;15.83;12.27;;;;;;;2.85;59.30;102241.41;5118325;28;20406;-74
2021/01/15 08:00:38;;;;;;;15.90;12.57;;;;;;;2.69;61.20;102248.13;5118061;28;20441;-76
2021/01/15 08:03:04;;;;;;;17.63;11.90;;;;;;;2.62;61.64;102250.19;5118653;28;20784;-76
2021/01/15 08:05:29;;;;;;;16.10;12.90;;;;;;;2.35;62.92;102258.75;5118117;28;20167;-76
2021/01/15 08:08:05;;;;;;;14.50;12.03;;;;;;;1.96;65.75;102260.38;5118084;28;20178;-76
2021/01/15 08:10:31;;;;;;;20.43;12.10;;;;;;;2.68;62.90;102266.06;5118062;28;20162;-77
2021/01/15 08:12:56;;;;;;;18.60;12.80;;;;;;;2.11;64.95;102264.78;5117951;28;20518;-77
2021/01/15 08:15:29;;;;;;;15.77;12.57;;;;;;;2.16;65.23;102274.59;5117456;28;20464;-77
2021/01/15 08:17:54;;;;;;;16.90;14.23;;;;;;;1.90;66.03;102270.22;5117548;28;20483;-76
2021/01/15 08:20:20;;;;;;;18.93;14.43;;;;;;;1.93;66.31;102272.13;5117993;28;20444;-77
2021/01/15 08:22:48;;;;;;;17.40;13.30;;;;;;;1.87;66.83;102259.75;5118223;28;20172;-77
2021/01/15 08:25:23;;;;;;;19.03;13.60;;;;;;;2.12;65.01;102277.75;5117959;28;20211;-77
2021/01/15 08:27:48;;;;;;;18.27;14.17;;;;;;;2.13;65.19;102265.78;5117777;28;20636;-76
2021/01/15 08:30:14;;;;;;;18.47;14.13;;;;;;;2.00;65.81;102272.66;5117695;28;20428;-77
2021/01/15 08:32:42;;;;;;;20.37;14.43;;;;;;;2.62;63.61;102273.34;5117720;28;20197;-77
2021/01/15 08:35:20;;;;;;;19.57;14.20;;;;;;;2.86;63.30;102269.81;5118546;28;20196;-75
2021/01/15 08:37:45;;;;;;;18.40;14.00;;;;;;;2.45;62.66;102272.22;5117742;28;20529;-76
2021/01/15 08:40:11;;;;;;;14.77;11.80;;;;;;;2.11;64.13;102275.06;5116963;28;20417;-76
2021/01/15 08:42:36;;;;;;;25.10;18.40;;;;;;;2.10;64.47;102278.44;5117838;28;20203;-76
2021/01/15 08:45:02;;;;;;;19.63;13.70;;;;;;;2.94;61.50;102274.59;5116917;28;20177;-76
2021/01/15 08:47:31;;;;;;;17.07;13.90;;;;;;;1.61;65.50;102276.81;5118067;28;20168;-77
2021/01/15 08:49:57;;;;;;;16.83;12.27;;;;;;;1.74;64.89;102280.22;5116810;28;20417;-77
2021/01/15 08:52:32;;;;;;;17.50;13.30;;;;;;;1.57;65.62;102281.59;5117695;28;20851;-77
2021/01/15 08:55:02;;;;;;;16.80;12.23;;;;;;;2.00;63.99;102280.38;5117430;28;20484;-77
2021/01/15 08:57:31;;;;;;;16.37;12.73;;;;;;;2.13;63.46;102289.81;5117421;28;20840;-76
2021/01/15 09:00:07;;;;;;;16.60;12.10;;;;;;;1.89;63.85;102289.00;5117684;28;20460;-76
2021/01/15 09:02:37;;;;;;;15.30;12.40;;;;;;;1.73;64.78;102297.31;5117498;28;20450;-77
2021/01/15 09:05:03;;;;;;;15.73;12.77;;;;;;;2.27;62.67;102292.44;5116824;28;20470;-77
2021/01/15 09:07:28;;;;;;;16.20;13.30;;;;;;;2.17;62.59;102301.22;5117602;28;20413;-78
2021/01/15 09:09:54;;;;;;;15.13;12.70;;;;;;;2.33;62.17;102301.50;5117438;28;20439;-77
2021/01/15 09:12:20;;;;;;;16.73;13.50;;;;;;;2.38;62.56;102298.34;5117130;28;20178;-77
2021/01/15 09:14:48;;;;;;;18.80;13.30;;;;;;;2.87;60.80;102299.06;5116476;28;20400;-77
2021/01/15 09:17:13;;;;;;;16.00;12.87;;;;;;;2.04;63.28;102304.63;5117506;28;20441;-77
2021/01/15 09:19:39;;;;;;;18.20;14.00;;;;;;;2.27;62.35;102305.31;5117599;28;20724;-77
2021/01/15 09:22:08;;;;;;;17.93;13.57;;;;;;;2.53;61.94;102309.69;5117452;28;20528;-77
2021/01/15 09:24:35;;;;;;;16.93;12.50;;;;;;;2.10;62.40;102305.06;5117029;28;20778;-77
2021/01/15 09:27:04;;;;;;;17.37;11.83;;;;;;;1.96;63.83;102311.81;5113860;28;20433;-76
2021/01/15 09:29:30;;;;;;;16.40;13.20;;;;;;;2.18;62.43;102315.88;5117605;28;20420;-77
2021/01/15 09:31:56;;;;;;;17.80;12.70;;;;;;;1.87;64.13;102318.88;5121096;28;20409;-77
2021/01/15 09:34:22;;;;;;;16.20;12.40;;;;;;;2.24;63.38;102321.44;5121272;28;20445;-75
2021/01/15 09:36:49;;;;;;;16.27;13.40;;;;;;;2.30;62.37;102320.97;5120798;28;20184;-74
2021/01/15 09:39:16;;;;;;;22.10;15.67;;;;;;;1.98;62.70;102333.38;5120514;28;20478;-76
2021/01/15 09:41:46;;;;;;;17.67;12.23;;;;;;;2.02;63.05;102322.53;5121287;28;20420;-76
2021/01/15 09:44:13;;;;;;;18.43;12.83;;;;;;;2.32;62.16;102320.28;5120753;28;20441;-77
2021/01/15 09:46:38;;;;;;;18.33;13.17;;;;;;;2.62;61.65;102328.31;5120809;28;20414;-77
2021/01/15 09:49:04;;;;;;;17.50;12.30;;;;;;;2.37;61.68;102333.47;5121311;28;20418;-78
2021/01/15 09:51:29;;;;;;;18.10;12.20;;;;;;;1.43;64.31;102338.03;5120577;28;20825;-78
2021/01/15 09:53:56;;;;;;;16.77;12.33;;;;;;;1.24;65.54;102345.19;5120808;28;20168;-77
2021/01/15 09:56:22;;;;;;;18.53;13.50;;;;;;;1.83;64.89;102340.91;5121184;28;20172;-78
2021/01/15 09:58:47;;;;;;;15.80;11.43;;;;;;;2.20;64.23;102345.16;5120749;28;20412;-78
2021/01/15 10:01:13;;;;;;;19.37;13.87;;;;;;;2.08;64.03;102339.19;5120541;28;20434;-78
2021/01/15 10:03:38;;;;;;;19.50;13.83;;;;;;;2.30;64.70;102346.69;5121055;28;20168;-79
2021/01/15 10:06:03;;;;;;;16.97;12.97;;;;;;;2.31;62.63;102349.41;5120555;28;20190;-79
2021/01/15 10:08:29;;;;;;;18.93;13.10;;;;;;;2.90;60.70;102344.75;5120597;28;20184;-78
2021/01/15 10:10:54;;;;;;;15.23;12.27;;;;;;;2.69;61.68;102345.97;5120805;28;20160;-77
2021/01/15 10:13:19;;;;;;;17.53;12.03;;;;;;;1.89;63.38;102361.00;5120347;28;20211;-78
2021/01/15 10:15:45;;;;;;;16.57;12.90;;;;;;;2.49;65.25;102354.91;5120315;28;20214;-78
2021/01/15 10:18:10;;;;;;;18.33;13.63;;;;;;;2.33;62.74;102355.53;5120154;28;20545;-77
2021/01/15 10:20:35;;;;;;;18.30;12.07;;;;;;;1.52;64.34;102366.97;5119961;28;20174;-78
2021/01/15 10:23:00;;;;;;;18.70;12.40;;;;;;;2.18;62.90;102370.81;5119402;28;20581;-75
2021/01/15 10:25:26;;;;;;;17.10;12.20;;;;;;;2.33;62.49;102363.25;5118952;28;20211;-76
2021/01/15 10:27:51;;;;;;;16.40;12.27;;;;;;;2.60;61.47;102363.38;5119003;28;20306;-76
2021/01/15 10:30:17;;;;;;;17.03;13.23;;;;;;;2.51;61.15;102357.59;5120412;28;20556;-76
2021/01/15 10:32:46;;;;;;;16.03;11.43;;;;;;;2.18;63.03;102362.19;5122793;28;20175;-78
2021/01/15 10:35:12;;;;;;;19.13;12.83;;;;;;;2.45;61.03;102359.72;5121167;28;20210;-76
2021/01/15 10:37:39;;;;;;;15.17;11.83;;;;;;;2.73;60.30;102357.34;5120137;28;20417;-76
2021/01/15 10:40:05;;;;;;;15.40;11.83;;;;;;;2.35;61.53;102364.28;5118098;27;20266;-77
2021/01/15 10:42:36;;;;;;;16.37;12.00;;;;;;;2.26;62.73;102362.72;5118648;28;20412;-76
2021/01/15 10:45:02;;;;;;;15.70;12.03;;;;;;;2.26;62.19;102367.84;5118774;28;20521;-76
2021/01/15 10:47:27;;;;;;;15.03;12.10;;;;;;;1.45;63.64;102361.31;5119587;28;20508;-78
2021/01/15 10:49:52;;;;;;;16.17;12.43;;;;;;;1.63;64.37;102356.59;5119545;28;20179;-78
2021/01/15 10:52:18;;;;;;;17.60;11.77;;;;;;;2.29;62.69;102362.94;5119897;28;20176;-77
2021/01/15 10:54:43;;;;;;;14.67;11.60;;;;;;;2.08;62.68;102359.75;5119420;28;20218;-78
2021/01/15 10:57:08;;;;;;;17.90;12.50;;;;;;;2.13;62.75;102358.41;5119496;28;20262;-78
2021/01/15 10:59:33;;;;;;;15.27;11.20;;;;;;;2.67;61.07;102357.84;5119118;28;20186;-76
2021/01/15 11:02:01;;;;;;;17.83;11.97;;;;;;;2.39;61.21;102359.31;5113613;28;20191;-76
2021/01/15 11:04:27;;;;;;;14.07;11.40;;;;;;;2.03;61.37;102364.59;5136707;27;20181;-78
2021/01/15 11:06:54;;;;;;;15.63;12.07;;;;;;;1.75;62.71;102366.88;5138583;27;20492;-76
2021/01/15 11:09:20;;;;;;;16.37;12.13;;;;;;;1.75;63.80;102365.19;5137776;27;20206;-77
2021/01/15 11:11:46;;;;;;;15.87;12.03;;;;;;;1.97;62.88;102364.16;5138642;27;20428;-76
2021/01/15 11:14:15;;;;;;;14.97;12.13;;;;;;;1.98;62.30;102360.78;5138682;27;20824;-78
2021/01/15 11:16:42;;;;;;;14.30;11.23;;;;;;;2.10;62.53;102371.06;5138407;27;20413;-77
2021/01/15 11:19:08;;;;;;;14.63;11.80;;;;;;;1.95;62.94;102360.56;5120963;27;20484;-75
2021/01/15 11:21:34;;;;;;;16.40;12.53;;;;;;;2.02;63.04;102363.69;5137696;27;20408;-75
2021/01/15 11:24:00;;;;;;;12.80;10.37;;;;;;;1.45;64.56;102366.44;5138110;27;20464;-79